sensor_id;sensor_type;location;lat;lon;timestamp;temperature;humidity
39951;DHT22;25629;51.444;-2.606;2023-02-12T00:02:16;10.20;99.90
39951;DHT22;25629;51.444;-2.606;2023-02-12T00:04:42;10.20;99.90
39951;DHT22;25629;51.444;-2.606;2023-02-12T00:07:08;10.20;99.90
39951;DHT22;25629;51.444;-2.606;2023-02-12T00:09:35;10.10;99.90
39951;DHT22;25629;51.444;-2.606;2023-02-12T00:12:01;10.10;99.90
39951;DHT22;25629;51.444;-2.606;2023-02-12T00:14:26;10.10;99.90
39951;DHT22;25629;51.444;-2.606;2023-02-12T00:16:52;10.00;99.90
39951;DHT22;25629;51.444;-2.606;2023-02-12T00:19:18;10.00;99.90
39951;DHT22;25629;51.444;-2.606;2023-02-12T00:21:43;9.90;99.90
39951;DHT22;25629;51.444;-2.606;2023-02-12T00:24:09;10.00;99.90
39951;DHT22;25629;51.444;-2.606;2023-02-12T00:26:35;9.90;99.90
39951;DHT22;25629;51.444;-2.606;2023-02-12T00:29:01;9.90;99.90
39951;DHT22;25629;51.444;-2.606;2023-02-12T00:31:28;10.00;99.90
39951;DHT22;25629;51.444;-2.606;2023-02-12T00:33:55;10.00;99.90
39951;DHT22;25629;51.444;-2.606;2023-02-12T00:36:22;10.00;99.90
39951;DHT22;25629;51.444;-2.606;2023-02-12T00:38:50;10.00;99.90
39951;DHT22;25629;51.444;-2.606;2023-02-12T00:41:17;10.00;99.90
39951;DHT22;25629;51.444;-2.606;2023-02-12T00:43:43;10.00;99.90
39951;DHT22;25629;51.444;-2.606;2023-02-12T00:46:09;10.00;99.90
39951;DHT22;25629;51.444;-2.606;2023-02-12T00:48:36;10.00;99.90
39951;DHT22;25629;51.444;-2.606;2023-02-12T00:51:02;10.00;99.90
39951;DHT22;25629;51.444;-2.606;2023-02-12T00:53:28;10.00;99.90
39951;DHT22;25629;51.444;-2.606;2023-02-12T00:55:54;10.00;99.90
39951;DHT22;25629;51.444;-2.606;2023-02-12T00:58:19;10.00;99.90
39951;DHT22;25629;51.444;-2.606;2023-02-12T01:00:45;10.00;99.90
39951;DHT22;25629;51.444;-2.606;2023-02-12T01:03:12;10.00;99.90
39951;DHT22;25629;51.444;-2.606;2023-02-12T01:05:38;10.00;99.90
39951;DHT22;25629;51.444;-2.606;2023-02-12T01:08:04;10.00;99.90
39951;DHT22;25629;51.444;-2.606;2023-02-12T01:10:30;10.00;99.90
39951;DHT22;25629;51.444;-2.606;2023-02-12T01:12:56;10.00;99.90
39951;DHT22;25629;51.444;-2.606;2023-02-12T01:15:22;10.00;99.90
39951;DHT22;25629;51.444;-2.606;2023-02-12T01:17:50;9.90;99.90
39951;DHT22;25629;51.444;-2.606;2023-02-12T01:20:18;9.90;99.90
39951;DHT22;25629;51.444;-2.606;2023-02-12T01:22:44;9.90;99.90
39951;DHT22;25629;51.444;-2.606;2023-02-12T01:25:10;9.90;99.90
39951;DHT22;25629;51.444;-2.606;2023-02-12T01:27:36;10.00;99.90
39951;DHT22;25629;51.444;-2.606;2023-02-12T01:30:03;10.00;99.90
39951;DHT22;25629;51.444;-2.606;2023-02-12T01:32:29;10.00;99.90
39951;DHT22;25629;51.444;-2.606;2023-02-12T01:34:54;9.90;99.90
39951;DHT22;25629;51.444;-2.606;2023-02-12T01:37:20;9.90;99.90
39951;DHT22;25629;51.444;-2.606;2023-02-12T01:39:46;9.90;99.90
39951;DHT22;25629;51.444;-2.606;2023-02-12T01:42:13;9.90;99.90
39951;DHT22;25629;51.444;-2.606;2023-02-12T01:44:44;10.00;99.90
39951;DHT22;25629;51.444;-2.606;2023-02-12T01:47:18;10.00;99.90
39951;DHT22;25629;51.444;-2.606;2023-02-12T01:49:45;9.90;99.90
39951;DHT22;25629;51.444;-2.606;2023-02-12T01:52:19;9.90;99.90
39951;DHT22;25629;51.444;-2.606;2023-02-12T01:54:46;9.90;99.90
39951;DHT22;25629;51.444;-2.606;2023-02-12T01:57:12;9.90;99.90
39951;DHT22;25629;51.444;-2.606;2023-02-12T01:59:39;9.90;99.90
39951;DHT22;25629;51.444;-2.606;2023-02-12T02:02:07;9.90;99.90
39951;DHT22;25629;51.444;-2.606;2023-02-12T02:04:40;9.90;99.90
39951;DHT22;25629;51.444;-2.606;2023-02-12T02:07:09;9.90;99.90
39951;DHT22;25629;51.444;-2.606;2023-02-12T02:09:37;9.90;99.90
39951;DHT22;25629;51.444;-2.606;2023-02-12T02:12:04;9.80;99.90
39951;DHT22;25629;51.444;-2.606;2023-02-12T02:14:52;9.80;99.90
39951;DHT22;25629;51.444;-2.606;2023-02-12T02:18:22;9.80;99.90
39951;DHT22;25629;51.444;-2.606;2023-02-12T02:31:42;9.70;95.10
39951;DHT22;25629;51.444;-2.606;2023-02-12T02:34:39;9.80;94.90
39951;DHT22;25629;51.444;-2.606;2023-02-12T02:40:22;9.80;93.20
39951;DHT22;25629;51.444;-2.606;2023-02-12T02:45:39;9.80;93.10
39951;DHT22;25629;51.444;-2.606;2023-02-12T02:50:40;9.80;93.70
39951;DHT22;25629;51.444;-2.606;2023-02-12T02:53:12;9.80;92.80
39951;DHT22;25629;51.444;-2.606;2023-02-12T02:56:00;9.80;92.50
39951;DHT22;25629;51.444;-2.606;2023-02-12T02:58:40;9.80;92.80
39951;DHT22;25629;51.444;-2.606;2023-02-12T03:03:44;9.80;93.20
39951;DHT22;25629;51.444;-2.606;2023-02-12T03:06:31;9.90;93.10
39951;DHT22;25629;51.444;-2.606;2023-02-12T03:09:08;9.80;92.30
39951;DHT22;25629;51.444;-2.606;2023-02-12T03:11:36;9.80;92.10
39951;DHT22;25629;51.444;-2.606;2023-02-12T03:16:34;9.80;91.30
39951;DHT22;25629;51.444;-2.606;2023-02-12T03:21:57;9.80;92.40
39951;DHT22;25629;51.444;-2.606;2023-02-12T03:24:42;9.80;91.60
39951;DHT22;25629;51.444;-2.606;2023-02-12T03:27:16;9.80;92.80
39951;DHT22;25629;51.444;-2.606;2023-02-12T03:29:44;9.80;92.90
39951;DHT22;25629;51.444;-2.606;2023-02-12T03:32:29;9.80;92.50
39951;DHT22;25629;51.444;-2.606;2023-02-12T03:37:35;9.80;93.30
39951;DHT22;25629;51.444;-2.606;2023-02-12T03:43:51;9.80;92.60
39951;DHT22;25629;51.444;-2.606;2023-02-12T03:47:01;9.80;93.70
39951;DHT22;25629;51.444;-2.606;2023-02-12T03:49:34;9.80;95.00
39951;DHT22;25629;51.444;-2.606;2023-02-12T03:52:03;9.80;94.80
39951;DHT22;25629;51.444;-2.606;2023-02-12T03:54:29;9.80;95.10
39951;DHT22;25629;51.444;-2.606;2023-02-12T03:57:06;9.80;96.00
39951;DHT22;25629;51.444;-2.606;2023-02-12T03:59:35;9.80;96.10
39951;DHT22;25629;51.444;-2.606;2023-02-12T04:02:02;9.70;96.90
39951;DHT22;25629;51.444;-2.606;2023-02-12T04:04:28;9.70;97.20
39951;DHT22;25629;51.444;-2.606;2023-02-12T04:06:54;9.70;97.20
39951;DHT22;25629;51.444;-2.606;2023-02-12T04:09:22;9.70;97.80
39951;DHT22;25629;51.444;-2.606;2023-02-12T04:17:21;9.60;99.10
39951;DHT22;25629;51.444;-2.606;2023-02-12T04:31:06;9.50;98.00
39951;DHT22;25629;51.444;-2.606;2023-02-12T04:33:56;9.50;97.00
39951;DHT22;25629;51.444;-2.606;2023-02-12T04:36:26;9.50;97.10
39951;DHT22;25629;51.444;-2.606;2023-02-12T04:38:57;9.50;97.10
39951;DHT22;25629;51.444;-2.606;2023-02-12T04:41:25;9.50;97.40
39951;DHT22;25629;51.444;-2.606;2023-02-12T04:43:51;9.50;96.30
39951;DHT22;25629;51.444;-2.606;2023-02-12T04:46:17;9.50;95.70
39951;DHT22;25629;51.444;-2.606;2023-02-12T04:48:57;9.50;96.50
39951;DHT22;25629;51.444;-2.606;2023-02-12T04:51:23;9.50;96.20
39951;DHT22;25629;51.444;-2.606;2023-02-12T04:53:49;9.50;96.20
39951;DHT22;25629;51.444;-2.606;2023-02-12T04:56:15;9.50;95.70
39951;DHT22;25629;51.444;-2.606;2023-02-12T04:58:41;9.50;96.20
39951;DHT22;25629;51.444;-2.606;2023-02-12T05:01:07;9.50;95.90
39951;DHT22;25629;51.444;-2.606;2023-02-12T05:03:34;9.50;95.90
39951;DHT22;25629;51.444;-2.606;2023-02-12T05:06:07;9.50;96.00
39951;DHT22;25629;51.444;-2.606;2023-02-12T05:08:33;9.50;95.40
39951;DHT22;25629;51.444;-2.606;2023-02-12T05:11:07;9.50;96.10
39951;DHT22;25629;51.444;-2.606;2023-02-12T05:13:33;9.50;96.10
39951;DHT22;25629;51.444;-2.606;2023-02-12T05:15:59;9.40;96.40
39951;DHT22;25629;51.444;-2.606;2023-02-12T05:18:25;9.40;96.10
39951;DHT22;25629;51.444;-2.606;2023-02-12T05:20:58;9.40;96.40
39951;DHT22;25629;51.444;-2.606;2023-02-12T05:23:27;9.40;96.90
39951;DHT22;25629;51.444;-2.606;2023-02-12T05:25:53;9.50;96.60
39951;DHT22;25629;51.444;-2.606;2023-02-12T05:28:22;9.40;97.00
39951;DHT22;25629;51.444;-2.606;2023-02-12T05:30:47;9.50;97.00
39951;DHT22;25629;51.444;-2.606;2023-02-12T05:33:13;9.50;96.20
39951;DHT22;25629;51.444;-2.606;2023-02-12T05:35:39;9.50;96.70
39951;DHT22;25629;51.444;-2.606;2023-02-12T05:38:04;9.50;96.70
39951;DHT22;25629;51.444;-2.606;2023-02-12T05:40:30;9.40;97.40
39951;DHT22;25629;51.444;-2.606;2023-02-12T05:42:56;9.50;97.40
39951;DHT22;25629;51.444;-2.606;2023-02-12T05:45:22;9.50;97.80
39951;DHT22;25629;51.444;-2.606;2023-02-12T05:47:52;9.50;97.50
39951;DHT22;25629;51.444;-2.606;2023-02-12T05:50:18;9.40;97.70
39951;DHT22;25629;51.444;-2.606;2023-02-12T05:52:44;9.40;96.90
39951;DHT22;25629;51.444;-2.606;2023-02-12T05:55:10;9.40;96.80
39951;DHT22;25629;51.444;-2.606;2023-02-12T05:57:36;9.40;96.50
39951;DHT22;25629;51.444;-2.606;2023-02-12T06:00:03;9.40;97.10
39951;DHT22;25629;51.444;-2.606;2023-02-12T06:02:29;9.40;97.50
39951;DHT22;25629;51.444;-2.606;2023-02-12T06:04:55;9.40;97.50
39951;DHT22;25629;51.444;-2.606;2023-02-12T06:07:20;9.40;97.70
39951;DHT22;25629;51.444;-2.606;2023-02-12T06:09:47;9.40;97.90
39951;DHT22;25629;51.444;-2.606;2023-02-12T06:12:13;9.40;97.00
39951;DHT22;25629;51.444;-2.606;2023-02-12T06:14:40;9.40;97.20
39951;DHT22;25629;51.444;-2.606;2023-02-12T06:17:05;9.40;97.40
39951;DHT22;25629;51.444;-2.606;2023-02-12T06:19:31;9.40;96.70
39951;DHT22;25629;51.444;-2.606;2023-02-12T06:21:57;9.30;96.20
39951;DHT22;25629;51.444;-2.606;2023-02-12T06:24:23;9.30;96.60
39951;DHT22;25629;51.444;-2.606;2023-02-12T06:26:50;9.30;96.70
39951;DHT22;25629;51.444;-2.606;2023-02-12T06:29:16;9.40;96.60
39951;DHT22;25629;51.444;-2.606;2023-02-12T06:31:42;9.30;97.10
39951;DHT22;25629;51.444;-2.606;2023-02-12T06:34:10;9.30;97.00
39951;DHT22;25629;51.444;-2.606;2023-02-12T06:36:37;9.30;96.60
39951;DHT22;25629;51.444;-2.606;2023-02-12T06:39:04;9.30;96.60
39951;DHT22;25629;51.444;-2.606;2023-02-12T06:41:30;9.20;96.80
39951;DHT22;25629;51.444;-2.606;2023-02-12T06:43:56;9.30;97.00
39951;DHT22;25629;51.444;-2.606;2023-02-12T06:46:22;9.20;96.80
39951;DHT22;25629;51.444;-2.606;2023-02-12T06:48:51;9.30;97.20
39951;DHT22;25629;51.444;-2.606;2023-02-12T06:51:17;9.30;96.90
39951;DHT22;25629;51.444;-2.606;2023-02-12T06:53:46;9.20;97.20
39951;DHT22;25629;51.444;-2.606;2023-02-12T06:56:12;9.20;97.40
39951;DHT22;25629;51.444;-2.606;2023-02-12T06:58:40;9.20;97.40
39951;DHT22;25629;51.444;-2.606;2023-02-12T07:01:16;9.20;96.80
39951;DHT22;25629;51.444;-2.606;2023-02-12T07:03:46;9.20;97.10
39951;DHT22;25629;51.444;-2.606;2023-02-12T07:06:12;9.20;97.20
39951;DHT22;25629;51.444;-2.606;2023-02-12T07:08:38;9.20;97.20
39951;DHT22;25629;51.444;-2.606;2023-02-12T07:11:04;9.20;96.30
39951;DHT22;25629;51.444;-2.606;2023-02-12T07:13:29;9.20;96.60
39951;DHT22;25629;51.444;-2.606;2023-02-12T07:15:55;9.20;95.70
39951;DHT22;25629;51.444;-2.606;2023-02-12T07:18:21;9.20;95.90
39951;DHT22;25629;51.444;-2.606;2023-02-12T07:20:46;9.20;95.70
39951;DHT22;25629;51.444;-2.606;2023-02-12T07:23:12;9.20;95.60
39951;DHT22;25629;51.444;-2.606;2023-02-12T07:25:38;9.20;96.10
39951;DHT22;25629;51.444;-2.606;2023-02-12T07:28:04;9.20;96.20
39951;DHT22;25629;51.444;-2.606;2023-02-12T07:30:29;9.30;95.50
39951;DHT22;25629;51.444;-2.606;2023-02-12T07:32:55;9.20;95.00
39951;DHT22;25629;51.444;-2.606;2023-02-12T07:35:21;9.20;95.40
39951;DHT22;25629;51.444;-2.606;2023-02-12T07:37:46;9.20;95.70
39951;DHT22;25629;51.444;-2.606;2023-02-12T07:40:12;9.20;96.00
39951;DHT22;25629;51.444;-2.606;2023-02-12T07:42:38;9.20;96.20
39951;DHT22;25629;51.444;-2.606;2023-02-12T07:45:04;9.20;96.40
39951;DHT22;25629;51.444;-2.606;2023-02-12T07:47:30;9.20;96.80
39951;DHT22;25629;51.444;-2.606;2023-02-12T07:49:56;9.20;96.50
39951;DHT22;25629;51.444;-2.606;2023-02-12T07:52:22;9.20;97.10
39951;DHT22;25629;51.444;-2.606;2023-02-12T07:54:47;9.20;96.80
39951;DHT22;25629;51.444;-2.606;2023-02-12T07:57:13;9.20;96.90
39951;DHT22;25629;51.444;-2.606;2023-02-12T07:59:38;9.20;97.20
39951;DHT22;25629;51.444;-2.606;2023-02-12T08:02:04;9.20;97.10
39951;DHT22;25629;51.444;-2.606;2023-02-12T08:04:30;9.30;97.10
39951;DHT22;25629;51.444;-2.606;2023-02-12T08:06:55;9.30;96.90
39951;DHT22;25629;51.444;-2.606;2023-02-12T08:09:24;9.30;97.30
39951;DHT22;25629;51.444;-2.606;2023-02-12T08:11:50;9.30;96.60
39951;DHT22;25629;51.444;-2.606;2023-02-12T08:14:18;9.30;97.10
39951;DHT22;25629;51.444;-2.606;2023-02-12T08:16:46;9.30;97.00
39951;DHT22;25629;51.444;-2.606;2023-02-12T08:19:12;9.30;96.80
39951;DHT22;25629;51.444;-2.606;2023-02-12T08:21:37;9.40;95.90
39951;DHT22;25629;51.444;-2.606;2023-02-12T08:24:03;9.40;96.40
39951;DHT22;25629;51.444;-2.606;2023-02-12T08:26:35;9.50;96.50
39951;DHT22;25629;51.444;-2.606;2023-02-12T08:29:23;9.40;94.00
39951;DHT22;25629;51.444;-2.606;2023-02-12T08:31:53;9.40;94.00
39951;DHT22;25629;51.444;-2.606;2023-02-12T08:34:34;9.50;94.40
39951;DHT22;25629;51.444;-2.606;2023-02-12T08:37:00;9.50;94.10
39951;DHT22;25629;51.444;-2.606;2023-02-12T08:39:27;9.50;92.90
39951;DHT22;25629;51.444;-2.606;2023-02-12T08:41:55;9.50;93.30
39951;DHT22;25629;51.444;-2.606;2023-02-12T08:44:21;9.50;93.90
39951;DHT22;25629;51.444;-2.606;2023-02-12T08:46:49;9.60;91.90
39951;DHT22;25629;51.444;-2.606;2023-02-12T08:49:18;9.50;92.70
39951;DHT22;25629;51.444;-2.606;2023-02-12T08:51:46;9.60;92.80
39951;DHT22;25629;51.444;-2.606;2023-02-12T08:54:25;9.60;91.20
39951;DHT22;25629;51.444;-2.606;2023-02-12T08:56:59;9.70;90.50
39951;DHT22;25629;51.444;-2.606;2023-02-12T08:59:25;9.70;91.10
39951;DHT22;25629;51.444;-2.606;2023-02-12T09:01:52;9.70;90.30
39951;DHT22;25629;51.444;-2.606;2023-02-12T09:04:21;9.80;88.50
39951;DHT22;25629;51.444;-2.606;2023-02-12T09:06:49;9.90;87.60
39951;DHT22;25629;51.444;-2.606;2023-02-12T09:09:15;9.90;85.10
39951;DHT22;25629;51.444;-2.606;2023-02-12T09:11:41;10.00;85.90
39951;DHT22;25629;51.444;-2.606;2023-02-12T09:14:09;10.00;84.20
39951;DHT22;25629;51.444;-2.606;2023-02-12T09:16:36;10.00;77.50
39951;DHT22;25629;51.444;-2.606;2023-02-12T09:19:02;10.00;77.10
39951;DHT22;25629;51.444;-2.606;2023-02-12T09:21:28;10.00;78.20
39951;DHT22;25629;51.444;-2.606;2023-02-12T09:23:54;10.10;78.50
39951;DHT22;25629;51.444;-2.606;2023-02-12T09:26:21;10.20;73.60
39951;DHT22;25629;51.444;-2.606;2023-02-12T09:28:47;10.20;72.00
39951;DHT22;25629;51.444;-2.606;2023-02-12T09:31:17;10.30;70.80
39951;DHT22;25629;51.444;-2.606;2023-02-12T09:33:45;10.40;69.50
39951;DHT22;25629;51.444;-2.606;2023-02-12T09:36:13;10.30;63.20
39951;DHT22;25629;51.444;-2.606;2023-02-12T09:38:39;10.30;66.90
39951;DHT22;25629;51.444;-2.606;2023-02-12T09:52:26;10.50;65.70
39951;DHT22;25629;51.444;-2.606;2023-02-12T09:54:52;10.50;57.70
39951;DHT22;25629;51.444;-2.606;2023-02-12T09:57:32;10.50;46.50
39951;DHT22;25629;51.444;-2.606;2023-02-12T10:00:30;10.60;39.40
39951;DHT22;25629;51.444;-2.606;2023-02-12T10:03:12;10.70;37.80
39951;DHT22;25629;51.444;-2.606;2023-02-12T10:05:48;10.80;29.30
39951;DHT22;25629;51.444;-2.606;2023-02-12T10:11:04;10.80;18.10
39951;DHT22;25629;51.444;-2.606;2023-02-12T10:16:20;10.70;5.50
39951;DHT22;25629;51.444;-2.606;2023-02-12T10:24:15;10.80;1.00
39951;DHT22;25629;51.444;-2.606;2023-02-12T10:26:51;10.80;1.00
39951;DHT22;25629;51.444;-2.606;2023-02-12T10:29:22;10.90;1.00
39951;DHT22;25629;51.444;-2.606;2023-02-12T10:31:57;10.70;1.00
39951;DHT22;25629;51.444;-2.606;2023-02-12T10:34:27;10.80;99.90
39951;DHT22;25629;51.444;-2.606;2023-02-12T10:37:01;10.70;99.90
39951;DHT22;25629;51.444;-2.606;2023-02-12T10:39:43;10.70;99.90
39951;DHT22;25629;51.444;-2.606;2023-02-12T10:42:33;10.50;1.00
39951;DHT22;25629;51.444;-2.606;2023-02-12T10:45:01;10.40;99.90
39951;DHT22;25629;51.444;-2.606;2023-02-12T10:47:26;10.40;99.90
39951;DHT22;25629;51.444;-2.606;2023-02-12T10:49:58;10.50;99.90
39951;DHT22;25629;51.444;-2.606;2023-02-12T10:57:53;10.70;99.90
39951;DHT22;25629;51.444;-2.606;2023-02-12T11:00:33;10.70;75.80
39951;DHT22;25629;51.444;-2.606;2023-02-12T11:03:18;10.70;99.90
39951;DHT22;25629;51.444;-2.606;2023-02-12T11:05:46;10.60;99.90
39951;DHT22;25629;51.444;-2.606;2023-02-12T11:08:32;10.70;99.90
39951;DHT22;25629;51.444;-2.606;2023-02-12T11:13:35;10.90;1.00
39951;DHT22;25629;51.444;-2.606;2023-02-12T11:16:01;10.80;1.00
39951;DHT22;25629;51.444;-2.606;2023-02-12T11:18:28;10.80;99.90
39951;DHT22;25629;51.444;-2.606;2023-02-12T11:21:00;10.70;1.00
39951;DHT22;25629;51.444;-2.606;2023-02-12T11:23:32;10.70;1.00
39951;DHT22;25629;51.444;-2.606;2023-02-12T11:26:00;10.70;99.90
39951;DHT22;25629;51.444;-2.606;2023-02-12T11:28:27;10.70;18.30
39951;DHT22;25629;51.444;-2.606;2023-02-12T11:31:01;10.70;99.90
39951;DHT22;25629;51.444;-2.606;2023-02-12T11:33:32;10.70;1.00
39951;DHT22;25629;51.444;-2.606;2023-02-12T11:38:36;10.70;99.90
39951;DHT22;25629;51.444;-2.606;2023-02-12T11:43:47;10.90;99.90
39951;DHT22;25629;51.444;-2.606;2023-02-12T11:46:20;10.90;1.00
39951;DHT22;25629;51.444;-2.606;2023-02-12T11:48:46;10.90;99.90
39951;DHT22;25629;51.444;-2.606;2023-02-12T11:51:20;11.00;99.90
39951;DHT22;25629;51.444;-2.606;2023-02-12T11:53:50;11.10;1.00
39951;DHT22;25629;51.444;-2.606;2023-02-12T11:56:16;11.10;1.00
39951;DHT22;25629;51.444;-2.606;2023-02-12T11:58:42;11.20;1.00
39951;DHT22;25629;51.444;-2.606;2023-02-12T12:01:23;11.20;99.90
39951;DHT22;25629;51.444;-2.606;2023-02-12T12:04:02;11.20;1.00
39951;DHT22;25629;51.444;-2.606;2023-02-12T12:09:23;11.20;99.90
39951;DHT22;25629;51.444;-2.606;2023-02-12T12:12:12;11.30;99.90
39951;DHT22;25629;51.444;-2.606;2023-02-12T12:15:00;11.30;99.90
39951;DHT22;25629;51.444;-2.606;2023-02-12T12:20:40;11.40;76.60
39951;DHT22;25629;51.444;-2.606;2023-02-12T12:23:36;11.70;99.90
39951;DHT22;25629;51.444;-2.606;2023-02-12T12:26:32;11.90;99.90
39951;DHT22;25629;51.444;-2.606;2023-02-12T12:29:19;12.00;1.00
39951;DHT22;25629;51.444;-2.606;2023-02-12T12:31:51;12.00;99.90
39951;DHT22;25629;51.444;-2.606;2023-02-12T12:34:21;12.00;1.00
39951;DHT22;25629;51.444;-2.606;2023-02-12T12:37:09;12.10;99.90
39951;DHT22;25629;51.444;-2.606;2023-02-12T12:54:12;12.20;1.00
39951;DHT22;25629;51.444;-2.606;2023-02-12T12:59:24;12.20;99.90
39951;DHT22;25629;51.444;-2.606;2023-02-12T13:02:06;12.30;99.90
39951;DHT22;25629;51.444;-2.606;2023-02-12T13:19:01;12.20;1.00
39951;DHT22;25629;51.444;-2.606;2023-02-12T13:21:56;12.10;99.90
39951;DHT22;25629;51.444;-2.606;2023-02-12T13:24:37;12.00;99.90
39951;DHT22;25629;51.444;-2.606;2023-02-12T13:27:31;12.10;1.00
39951;DHT22;25629;51.444;-2.606;2023-02-12T13:30:00;12.00;1.00
39951;DHT22;25629;51.444;-2.606;2023-02-12T13:32:36;12.00;1.00
39951;DHT22;25629;51.444;-2.606;2023-02-12T13:35:06;12.20;99.90
39951;DHT22;25629;51.444;-2.606;2023-02-12T13:37:37;12.10;1.00
39951;DHT22;25629;51.444;-2.606;2023-02-12T13:40:09;12.30;99.90
39951;DHT22;25629;51.444;-2.606;2023-02-12T13:53:21;12.90;1.00
39951;DHT22;25629;51.444;-2.606;2023-02-12T14:01:15;13.60;99.90
39951;DHT22;25629;51.444;-2.606;2023-02-12T14:06:51;13.00;1.00
39951;DHT22;25629;51.444;-2.606;2023-02-12T14:09:21;12.80;99.90
39951;DHT22;25629;51.444;-2.606;2023-02-12T14:11:52;12.40;99.90
39951;DHT22;25629;51.444;-2.606;2023-02-12T14:14:34;12.40;99.90
39951;DHT22;25629;51.444;-2.606;2023-02-12T14:27:57;12.30;99.90
39951;DHT22;25629;51.444;-2.606;2023-02-12T14:38:02;12.20;1.00
39951;DHT22;25629;51.444;-2.606;2023-02-12T14:45:53;12.90;99.90
39951;DHT22;25629;51.444;-2.606;2023-02-12T14:51:05;12.40;1.00
39951;DHT22;25629;51.444;-2.606;2023-02-12T14:53:38;12.30;1.00
39951;DHT22;25629;51.444;-2.606;2023-02-12T14:56:05;12.10;99.90
39951;DHT22;25629;51.444;-2.606;2023-02-12T14:58:34;12.00;1.00
39951;DHT22;25629;51.444;-2.606;2023-02-12T15:01:02;12.00;99.90
39951;DHT22;25629;51.444;-2.606;2023-02-12T15:03:39;12.00;1.00
39951;DHT22;25629;51.444;-2.606;2023-02-12T15:06:20;11.80;1.00
39951;DHT22;25629;51.444;-2.606;2023-02-12T15:09:02;11.60;1.00
39951;DHT22;25629;51.444;-2.606;2023-02-12T15:11:49;11.60;1.00
39951;DHT22;25629;51.444;-2.606;2023-02-12T15:14:34;11.60;73.10
39951;DHT22;25629;51.444;-2.606;2023-02-12T15:17:10;11.60;99.90
39951;DHT22;25629;51.444;-2.606;2023-02-12T15:22:32;11.60;1.00
39951;DHT22;25629;51.444;-2.606;2023-02-12T15:27:44;11.40;99.90
39951;DHT22;25629;51.444;-2.606;2023-02-12T15:30:18;11.30;1.00
39951;DHT22;25629;51.444;-2.606;2023-02-12T15:32:44;11.10;76.00
39951;DHT22;25629;51.444;-2.606;2023-02-12T15:35:31;11.20;99.90
39951;DHT22;25629;51.444;-2.606;2023-02-12T15:37:57;11.30;99.90
39951;DHT22;25629;51.444;-2.606;2023-02-12T15:40:26;11.30;99.90
39951;DHT22;25629;51.444;-2.606;2023-02-12T15:42:57;11.20;99.90
39951;DHT22;25629;51.444;-2.606;2023-02-12T15:45:33;11.20;99.90
39951;DHT22;25629;51.444;-2.606;2023-02-12T15:50:27;11.00;99.90
39951;DHT22;25629;51.444;-2.606;2023-02-12T15:52:54;10.90;99.90
39951;DHT22;25629;51.444;-2.606;2023-02-12T15:55:26;10.90;99.90
39951;DHT22;25629;51.444;-2.606;2023-02-12T15:57:58;10.90;99.90
39951;DHT22;25629;51.444;-2.606;2023-02-12T16:00:39;10.90;99.90
39951;DHT22;25629;51.444;-2.606;2023-02-12T16:05:48;10.80;99.90
39951;DHT22;25629;51.444;-2.606;2023-02-12T16:08:19;10.80;99.90
39951;DHT22;25629;51.444;-2.606;2023-02-12T16:10:47;10.80;99.90
39951;DHT22;25629;51.444;-2.606;2023-02-12T16:13:29;10.80;99.90
39951;DHT22;25629;51.444;-2.606;2023-02-12T16:18:33;10.80;99.90
39951;DHT22;25629;51.444;-2.606;2023-02-12T16:21:11;10.80;99.90
39951;DHT22;25629;51.444;-2.606;2023-02-12T16:23:37;10.70;99.90
39951;DHT22;25629;51.444;-2.606;2023-02-12T16:26:03;10.70;99.90
39951;DHT22;25629;51.444;-2.606;2023-02-12T16:28:30;10.60;1.00
39951;DHT22;25629;51.444;-2.606;2023-02-12T16:31:11;10.50;1.00
39951;DHT22;25629;51.444;-2.606;2023-02-12T16:33:47;10.50;1.00
39951;DHT22;25629;51.444;-2.606;2023-02-12T16:38:53;10.40;1.00
39951;DHT22;25629;51.444;-2.606;2023-02-12T16:41:25;10.40;1.00
39951;DHT22;25629;51.444;-2.606;2023-02-12T16:46:28;10.50;1.00
39951;DHT22;25629;51.444;-2.606;2023-02-12T16:48:56;10.40;1.00
39951;DHT22;25629;51.444;-2.606;2023-02-12T16:51:26;10.50;1.00
39951;DHT22;25629;51.444;-2.606;2023-02-12T16:53:53;10.40;1.00
39951;DHT22;25629;51.444;-2.606;2023-02-12T16:56:22;10.20;1.00
39951;DHT22;25629;51.444;-2.606;2023-02-12T16:58:54;10.10;1.00
39951;DHT22;25629;51.444;-2.606;2023-02-12T17:01:27;10.00;1.00
39951;DHT22;25629;51.444;-2.606;2023-02-12T17:03:56;10.00;1.00
39951;DHT22;25629;51.444;-2.606;2023-02-12T17:06:25;10.00;1.00
39951;DHT22;25629;51.444;-2.606;2023-02-12T17:08:51;9.90;1.00
39951;DHT22;25629;51.444;-2.606;2023-02-12T17:11:17;9.90;1.00
39951;DHT22;25629;51.444;-2.606;2023-02-12T17:13:45;9.90;1.00
39951;DHT22;25629;51.444;-2.606;2023-02-12T17:16:11;9.80;1.00
39951;DHT22;25629;51.444;-2.606;2023-02-12T17:18:37;9.80;1.00
39951;DHT22;25629;51.444;-2.606;2023-02-12T17:23:51;9.70;1.00
39951;DHT22;25629;51.444;-2.606;2023-02-12T17:26:19;9.70;1.00
39951;DHT22;25629;51.444;-2.606;2023-02-12T17:28:45;9.70;1.00
39951;DHT22;25629;51.444;-2.606;2023-02-12T17:31:11;9.70;1.00
39951;DHT22;25629;51.444;-2.606;2023-02-12T17:33:37;9.70;1.00
39951;DHT22;25629;51.444;-2.606;2023-02-12T17:36:03;9.60;1.00
39951;DHT22;25629;51.444;-2.606;2023-02-12T17:38:29;9.70;1.00
39951;DHT22;25629;51.444;-2.606;2023-02-12T17:40:55;9.70;1.00
39951;DHT22;25629;51.444;-2.606;2023-02-12T17:43:21;9.70;1.00
39951;DHT22;25629;51.444;-2.606;2023-02-12T17:45:47;9.70;1.00
39951;DHT22;25629;51.444;-2.606;2023-02-12T17:48:15;9.70;1.00
39951;DHT22;25629;51.444;-2.606;2023-02-12T17:50:41;9.70;1.00
39951;DHT22;25629;51.444;-2.606;2023-02-12T17:53:08;9.70;1.00
39951;DHT22;25629;51.444;-2.606;2023-02-12T17:55:38;9.70;1.00
39951;DHT22;25629;51.444;-2.606;2023-02-12T17:58:04;9.70;1.00
39951;DHT22;25629;51.444;-2.606;2023-02-12T18:00:30;9.60;1.00
39951;DHT22;25629;51.444;-2.606;2023-02-12T18:02:56;9.70;1.00
39951;DHT22;25629;51.444;-2.606;2023-02-12T18:05:21;9.70;1.00
39951;DHT22;25629;51.444;-2.606;2023-02-12T18:07:47;9.70;1.00
39951;DHT22;25629;51.444;-2.606;2023-02-12T18:10:13;9.70;1.00
39951;DHT22;25629;51.444;-2.606;2023-02-12T18:12:39;9.70;1.00
39951;DHT22;25629;51.444;-2.606;2023-02-12T18:15:06;9.70;1.00
39951;DHT22;25629;51.444;-2.606;2023-02-12T18:17:32;9.70;1.00
39951;DHT22;25629;51.444;-2.606;2023-02-12T18:19:57;9.70;1.00
39951;DHT22;25629;51.444;-2.606;2023-02-12T18:22:23;9.70;1.00
39951;DHT22;25629;51.444;-2.606;2023-02-12T18:24:49;9.70;1.00
39951;DHT22;25629;51.444;-2.606;2023-02-12T18:27:15;9.70;1.00
39951;DHT22;25629;51.444;-2.606;2023-02-12T18:29:43;9.60;1.00
39951;DHT22;25629;51.444;-2.606;2023-02-12T18:32:09;9.60;1.00
39951;DHT22;25629;51.444;-2.606;2023-02-12T18:34:39;9.60;1.00
39951;DHT22;25629;51.444;-2.606;2023-02-12T18:37:06;9.50;4.80
39951;DHT22;25629;51.444;-2.606;2023-02-12T18:39:32;9.50;1.00
39951;DHT22;25629;51.444;-2.606;2023-02-12T18:41:58;9.50;1.00
39951;DHT22;25629;51.444;-2.606;2023-02-12T18:44:23;9.40;1.00
39951;DHT22;25629;51.444;-2.606;2023-02-12T18:46:49;9.40;5.10
39951;DHT22;25629;51.444;-2.606;2023-02-12T18:49:15;9.40;14.90
39951;DHT22;25629;51.444;-2.606;2023-02-12T18:51:41;9.40;12.90
39951;DHT22;25629;51.444;-2.606;2023-02-12T18:54:10;9.40;29.00
39951;DHT22;25629;51.444;-2.606;2023-02-12T18:56:39;9.40;39.30